Bagotville, Canada
Current Conditions -  °F | °C
As of 11:00 AM on Monday 24 Nov 2014 (Local Time) from CYBG Reporting Station
Light Rain Light Rain  
Wind Chill: 28°   Ceiling: 8000
Heat Index: 39°   Visibility: 20mi
Dew Point: 37°   Wind: 26mph
Humidity: 93%   Direction: 90°E
Pressure: 29.46"   Gusts: NA
Location:  48.34°N, 71°W
Report Text: CYBG 241600Z 09023KT 20SM -RA FEW010 FEW030 BKN080 04/03 A2946 RMK SF1SC1AC6 PRESFR SLP983
Loading
Personal Weather Stations






























Interactive Weather Map New forecast layout! Learn more

10-Day Weather Forecast

Advertisements
Track Severe Weather on mobile